createdAt,value
2023-04-25T00:03:52.970Z,1.05
2023-04-25T00:07:57.009Z,0.98
2023-04-25T00:12:00.216Z,1.00
2023-04-25T00:16:05.765Z,0.85
2023-04-25T00:20:11.098Z,1.10
2023-04-25T00:24:14.823Z,0.90
2023-04-25T00:28:18.606Z,1.25
2023-04-25T00:32:25.421Z,1.10
2023-04-25T00:36:30.289Z,1.15
2023-04-25T00:40:34.053Z,0.88
2023-04-25T00:44:39.050Z,1.10
2023-04-25T00:48:44.350Z,1.10
2023-04-25T00:52:47.358Z,1.10
2023-04-25T00:56:50.452Z,1.63
2023-04-25T01:00:55.200Z,1.33
2023-04-25T01:05:00.109Z,1.02
2023-04-25T01:09:06.017Z,0.90
2023-04-25T01:13:10.129Z,1.10
2023-04-25T01:17:15.204Z,1.13
2023-04-25T01:21:20.736Z,0.90
2023-04-25T01:25:24.782Z,0.93
2023-04-25T01:29:29.617Z,0.90
2023-04-25T01:33:32.785Z,0.90
2023-04-25T01:37:39.566Z,0.98
2023-04-25T01:41:42.793Z,1.33
2023-04-25T01:45:47.983Z,0.85
2023-04-25T01:49:51.340Z,0.88
2023-04-25T01:53:58.830Z,1.08
2023-04-25T01:58:10.374Z,1.30
2023-04-25T02:02:15.963Z,1.13
2023-04-25T02:06:19.201Z,1.63
2023-04-25T02:10:24.163Z,1.50
2023-04-25T02:14:27.252Z,1.15
2023-04-25T02:18:33.098Z,0.93
2023-04-25T02:22:36.615Z,1.30
2023-04-25T02:26:43.051Z,0.90
2023-04-25T02:30:46.078Z,1.02
2023-04-25T02:34:49.604Z,1.13
2023-04-25T02:38:55.069Z,1.00
2023-04-25T02:43:00.039Z,0.98
2023-04-25T02:47:03.188Z,1.15
2023-04-25T02:51:07.255Z,1.60
2023-04-25T02:55:12.139Z,0.95
2023-04-25T02:59:17.027Z,1.10
2023-04-25T03:03:22.819Z,1.55
2023-04-25T03:07:26.598Z,1.25
2023-04-25T03:11:30.318Z,1.70
2023-04-25T03:15:35.505Z,1.00
2023-04-25T03:19:44.769Z,1.92
2023-04-25T03:23:50.956Z,1.50
2023-04-25T03:27:54.261Z,1.63
2023-04-25T03:31:58.893Z,1.42
2023-04-25T03:36:02.312Z,1.70
2023-04-25T03:40:06.670Z,1.60
2023-04-25T03:44:10.177Z,1.73
2023-04-25T03:48:15.153Z,1.23
2023-04-25T03:52:18.474Z,1.55
2023-04-25T03:56:22.419Z,1.65
2023-04-25T04:00:25.610Z,1.33
2023-04-25T04:04:30.857Z,1.75
2023-04-25T04:08:34.376Z,2.17
2023-04-25T04:12:38.102Z,2.45
2023-04-25T04:16:41.477Z,1.40
2023-04-25T04:20:46.452Z,1.50
2023-04-25T04:24:51.459Z,2.47
2023-04-25T04:28:55.856Z,2.10
2023-04-25T04:32:59.274Z,1.63
2023-04-25T04:37:05.646Z,1.50
2023-04-25T04:41:09.606Z,1.17
2023-04-25T04:45:16.536Z,1.65
2023-04-25T04:49:19.899Z,1.52
2023-04-25T04:53:24.677Z,1.23
2023-04-25T04:57:27.823Z,1.73
2023-04-25T05:01:31.613Z,1.70
2023-04-25T05:05:34.927Z,1.23
2023-04-25T05:09:40.972Z,1.92
2023-04-25T05:13:43.885Z,1.40
2023-04-25T05:17:47.755Z,1.50
2023-04-25T05:21:50.932Z,1.50
2023-04-25T05:25:58.254Z,2.42
2023-04-25T05:30:02.686Z,1.85
2023-04-25T05:34:05.876Z,2.03
2023-04-25T05:38:09.008Z,2.17
2023-04-25T05:42:13.843Z,2.05
2023-04-25T05:46:18.985Z,1.50
2023-04-25T05:50:22.682Z,1.58
2023-04-25T05:54:25.844Z,2.30
2023-04-25T05:58:31.550Z,1.77
2023-04-25T06:02:34.998Z,1.45
2023-04-25T06:06:39.417Z,2.38
2023-04-25T06:10:42.696Z,1.45
2023-04-25T06:14:47.596Z,1.92
2023-04-25T06:18:50.848Z,1.35
2023-04-25T06:22:55.310Z,1.45
2023-04-25T06:26:58.434Z,2.10
2023-04-25T06:31:03.393Z,1.63
2023-04-25T06:35:07.446Z,1.40
2023-04-25T06:39:12.062Z,1.63
2023-04-25T06:43:15.249Z,1.73
2023-04-25T06:47:20.048Z,2.15
2023-04-25T06:51:24.319Z,1.73
2023-04-25T06:55:27.993Z,1.48
2023-04-25T06:59:31.254Z,1.33
2023-04-25T07:03:36.501Z,1.80
2023-04-25T07:07:40.448Z,0.98
2023-04-25T07:11:44.170Z,1.75
2023-04-25T07:15:49.974Z,1.20
2023-04-25T07:19:55.236Z,1.00
2023-04-25T07:23:59.053Z,1.52
2023-04-25T07:28:02.357Z,1.45
2023-04-25T07:32:06.103Z,0.80
2023-04-25T07:36:13.810Z,1.50
2023-04-25T07:40:17.631Z,1.70
2023-04-25T07:44:21.366Z,1.02
2023-04-25T07:48:24.626Z,0.90
2023-04-25T07:52:29.386Z,0.90
2023-04-25T07:56:45.168Z,1.63
2023-04-25T08:00:55.119Z,1.33
2023-04-25T08:04:58.744Z,1.05
2023-04-25T08:09:03.841Z,1.35
2023-04-25T08:13:07.457Z,2.13
2023-04-25T08:17:11.401Z,1.33
2023-04-25T08:21:15.072Z,1.13
2023-04-25T08:25:20.119Z,1.10
2023-04-25T08:29:25.027Z,1.23
2023-04-25T08:33:28.739Z,1.30
2023-04-25T08:37:32.159Z,0.75
2023-04-25T08:41:39.577Z,1.50
2023-04-25T08:45:44.247Z,2.05
2023-04-25T08:49:48.762Z,1.63
2023-04-25T08:53:57.848Z,1.70
2023-04-25T08:58:07.082Z,1.20
2023-04-25T09:02:12.741Z,1.58
2023-04-25T09:06:17.994Z,1.25
2023-04-25T09:10:21.391Z,1.10
2023-04-25T09:14:29.135Z,1.13
2023-04-25T09:18:34.183Z,1.15
2023-04-25T09:22:38.564Z,1.23
2023-04-25T09:26:42.075Z,1.15
2023-04-25T09:30:48.484Z,0.85
2023-04-25T09:34:53.672Z,1.02
2023-04-25T09:38:57.581Z,0.70
2023-04-25T09:43:01.724Z,0.80
2023-04-25T09:47:06.974Z,0.73
2023-04-25T09:51:11.355Z,0.60
2023-04-25T09:55:14.500Z,0.82
2023-04-25T09:59:21.056Z,0.90
2023-04-25T10:03:30.908Z,1.17
2023-04-25T10:07:39.495Z,1.27
2023-04-25T10:11:43.360Z,1.35
2023-04-25T10:15:47.879Z,1.25
2023-04-25T10:19:55.777Z,1.55
2023-04-25T10:23:59.893Z,1.23
2023-04-25T10:28:06.393Z,1.50
2023-04-25T10:32:13.164Z,0.70
2023-04-25T10:36:20.853Z,0.40
2023-04-25T10:40:25.195Z,0.65
2023-04-25T10:44:30.867Z,0.90
2023-04-25T10:48:34.150Z,0.98
2023-04-25T10:52:42.358Z,0.60
2023-04-25T10:56:45.840Z,0.57
2023-04-25T11:05:00.976Z,1.08
2023-04-25T11:09:14.627Z,0.20
2023-04-25T11:13:18.002Z,0.25
2023-04-25T11:17:22.260Z,0.40
2023-04-25T11:21:26.055Z,0.32
2023-04-25T11:25:33.730Z,0.80
2023-04-25T11:29:38.433Z,0.85
2023-04-25T11:33:42.157Z,0.60
2023-04-25T11:37:47.467Z,0.65
2023-04-25T11:41:52.747Z,0.50
2023-04-25T11:45:56.043Z,1.00
2023-04-25T11:50:01.105Z,0.77
2023-04-25T11:54:04.122Z,0.20
2023-04-25T11:58:10.851Z,0.47
2023-04-25T12:02:26.904Z,0.70
2023-04-25T12:06:31.098Z,0.60
2023-04-25T12:10:34.307Z,0.63
2023-04-25T12:14:39.972Z,0.35
2023-04-25T12:18:43.696Z,0.70
2023-04-25T12:22:48.692Z,0.20
2023-04-25T12:26:53.453Z,0.40
2023-04-25T12:31:13.245Z,0.40
2023-04-25T12:35:16.246Z,1.15
2023-04-25T12:39:21.831Z,0.90
2023-04-25T12:43:25.034Z,0.30
2023-04-25T12:47:36.602Z,0.90
2023-04-25T12:51:40.006Z,0.43
2023-04-25T12:55:44.231Z,0.50
2023-04-25T12:59:48.032Z,0.50
2023-04-25T13:03:53.664Z,0.80
2023-04-25T13:07:56.752Z,0.40
2023-04-25T13:12:00.647Z,0.40
2023-04-25T13:16:04.258Z,0.50
2023-04-25T13:20:12.439Z,0.40
2023-04-25T13:24:15.296Z,0.70
2023-04-25T13:28:18.535Z,0.22
2023-04-25T13:32:21.924Z,0.30
2023-04-25T13:36:29.632Z,0.35
2023-04-25T13:40:33.268Z,0.30
2023-04-25T13:44:37.955Z,0.50
2023-04-25T13:48:47.374Z,0.40
2023-04-25T13:52:52.350Z,0.80
2023-04-25T13:56:59.636Z,0.60
2023-04-25T14:01:04.807Z,0.95
2023-04-25T14:05:09.116Z,0.50
2023-04-25T14:09:14.539Z,0.85
2023-04-25T14:13:19.279Z,0.60
2023-04-25T14:17:22.361Z,0.90
2023-04-25T14:21:25.279Z,0.60
2023-04-25T14:25:30.740Z,0.95
2023-04-25T14:29:33.903Z,0.68
2023-04-25T14:33:38.463Z,0.75
2023-04-25T14:37:41.910Z,1.00
2023-04-25T14:41:46.991Z,0.70
2023-04-25T14:45:50.426Z,0.65
2023-04-25T14:49:56.844Z,0.70
2023-04-25T14:54:00.450Z,0.40
2023-04-25T14:58:05.377Z,0.82
2023-04-25T15:02:08.887Z,0.50
2023-04-25T15:06:11.967Z,0.90
2023-04-25T15:10:17.301Z,1.13
2023-04-25T15:14:23.018Z,0.80
2023-04-25T15:18:26.104Z,1.00
2023-04-25T15:22:30.131Z,0.55
2023-04-25T15:26:33.446Z,1.00
2023-04-25T15:30:40.089Z,0.82
2023-04-25T15:34:43.718Z,0.95
2023-04-25T15:38:52.444Z,0.60
2023-04-25T15:42:56.301Z,0.38
2023-04-25T15:47:01.716Z,0.50
2023-04-25T15:51:04.681Z,0.57
2023-04-25T15:55:09.747Z,0.57
2023-04-25T15:59:12.899Z,0.43
2023-04-25T16:03:18.039Z,0.38
2023-04-25T16:07:21.304Z,0.70
2023-04-25T16:11:24.292Z,0.80
2023-04-25T16:15:27.836Z,1.05
2023-04-25T16:19:32.991Z,0.82
2023-04-25T16:23:36.353Z,0.35
2023-04-25T16:27:40.063Z,0.80
2023-04-25T16:31:43.695Z,0.90
2023-04-25T16:35:50.647Z,0.50
2023-04-25T16:39:53.914Z,0.73
2023-04-25T16:43:58.928Z,0.70
2023-04-25T16:48:02.329Z,0.70
2023-04-25T16:52:07.110Z,0.73
2023-04-25T16:56:10.199Z,0.30
2023-04-25T17:00:15.738Z,0.50
2023-04-25T17:04:19.097Z,0.30
2023-04-25T17:08:24.547Z,0.20
2023-04-25T17:12:27.521Z,0.30
2023-04-25T17:16:37.794Z,0.30
2023-04-25T17:20:41.475Z,0.30
2023-04-25T17:24:46.817Z,0.38
2023-04-25T17:28:50.352Z,0.50
2023-04-25T17:32:54.245Z,0.55
2023-04-25T17:36:57.448Z,0.28
2023-04-25T17:41:02.267Z,0.80
2023-04-25T17:45:06.340Z,0.50
2023-04-25T17:49:09.611Z,0.50
2023-04-25T17:53:12.894Z,0.55
2023-04-25T17:57:19.345Z,0.82
2023-04-25T18:01:22.966Z,0.70
2023-04-25T18:05:29.194Z,1.00
2023-04-25T18:09:35.887Z,0.75
2023-04-25T18:13:41.314Z,0.88
2023-04-25T18:17:44.581Z,0.70
2023-04-25T18:21:50.482Z,1.33
2023-04-25T18:25:57.957Z,0.85
2023-04-25T18:30:02.878Z,0.88
2023-04-25T18:34:06.162Z,0.70
2023-04-25T18:38:10.533Z,0.80
2023-04-25T18:42:18.067Z,1.08
2023-04-25T18:46:24.510Z,0.70
2023-04-25T18:50:29.294Z,1.15
2023-04-25T18:54:33.722Z,0.77
2023-04-25T18:58:40.308Z,1.02
2023-04-25T19:02:45.714Z,0.88
2023-04-25T19:06:51.537Z,1.25
2023-04-25T19:10:55.183Z,1.05
2023-04-25T19:14:58.304Z,1.05
2023-04-25T19:19:03.112Z,1.17
2023-04-25T19:23:06.484Z,0.98
2023-04-25T19:27:10.211Z,0.90
2023-04-25T19:31:13.965Z,1.13
2023-04-25T19:35:20.724Z,1.20
2023-04-25T19:39:24.966Z,1.15
2023-04-25T19:43:28.724Z,1.17
2023-04-25T19:47:32.152Z,1.33
2023-04-25T19:51:38.386Z,1.48
2023-04-25T19:55:41.530Z,1.48
2023-04-25T19:59:48.971Z,0.88
2023-04-25T20:03:53.170Z,0.73
2023-04-25T20:08:01.658Z,1.25
2023-04-25T20:12:06.091Z,0.88
2023-04-25T20:16:09.785Z,0.85
2023-04-25T20:20:13.770Z,1.20
2023-04-25T20:24:19.660Z,1.20
2023-04-25T20:28:23.349Z,1.13
2023-04-25T20:32:28.252Z,2.20
2023-04-25T20:36:32.313Z,1.17
2023-04-25T20:40:37.370Z,1.10
2023-04-25T20:44:41.389Z,1.20
2023-04-25T20:48:44.811Z,1.10
2023-04-25T20:52:49.306Z,1.17
2023-04-25T20:56:55.051Z,1.10
2023-04-25T21:00:58.531Z,0.75
2023-04-25T21:05:03.989Z,1.13
2023-04-25T21:09:07.933Z,1.40
2023-04-25T21:13:13.769Z,1.52
2023-04-25T21:17:17.210Z,1.95
2023-04-25T21:21:20.306Z,1.13
2023-04-25T21:25:30.510Z,2.08
2023-04-25T21:29:35.511Z,1.35
2023-04-25T21:33:38.566Z,2.17
2023-04-25T21:37:42.818Z,2.22
2023-04-25T21:41:46.527Z,2.15
2023-04-25T21:46:11.114Z,1.80
2023-04-25T21:50:15.023Z,1.52
2023-04-25T21:54:21.967Z,1.67
2023-04-25T21:58:25.227Z,2.85
2023-04-25T22:02:31.928Z,1.95
2023-04-25T22:06:35.425Z,2.00
2023-04-25T22:10:40.519Z,1.98
2023-04-25T22:14:44.930Z,1.63
2023-04-25T22:18:50.004Z,2.20
2023-04-25T22:22:53.407Z,3.03
2023-04-25T22:26:56.922Z,2.72
2023-04-25T22:31:02.736Z,2.83
2023-04-25T22:35:09.743Z,2.28
2023-04-25T22:39:15.443Z,1.92
2023-04-25T22:43:18.725Z,2.53
2023-04-25T22:47:23.061Z,2.85
2023-04-25T22:51:27.975Z,3.10
2023-04-25T22:55:31.513Z,2.53
2023-04-25T22:59:36.508Z,3.08
2023-04-25T23:03:40.337Z,2.75
2023-04-25T23:07:46.113Z,2.75
2023-04-25T23:11:53.290Z,2.80
2023-04-25T23:15:57.372Z,2.70
2023-04-25T23:20:00.621Z,2.72
2023-04-25T23:24:06.670Z,2.60
2023-04-25T23:28:09.941Z,2.90
2023-04-25T23:32:14.371Z,3.10
2023-04-25T23:36:21.337Z,2.97
2023-04-25T23:40:26.838Z,3.95
2023-04-25T23:44:30.500Z,3.85
2023-04-25T23:48:34.231Z,2.90
2023-04-25T23:52:38.010Z,2.58
2023-04-25T23:56:43.858Z,3.65
